createdAt,value
2023-12-31T00:02:24.895Z,2.20
2023-12-31T00:08:16.830Z,2.00
2023-12-31T00:10:44.601Z,1.60
2023-12-31T00:13:12.208Z,2.00
2023-12-31T00:15:39.768Z,2.30
2023-12-31T00:18:07.482Z,1.80
2023-12-31T00:20:35.009Z,1.70
2023-12-31T00:23:02.812Z,1.90
2023-12-31T00:25:30.561Z,1.70
2023-12-31T00:27:58.115Z,1.90
2023-12-31T00:30:28.881Z,2.40
2023-12-31T00:32:56.546Z,2.10
2023-12-31T00:35:24.598Z,1.80
2023-12-31T00:37:52.150Z,2.10
2023-12-31T00:40:19.982Z,2.10
2023-12-31T00:42:47.443Z,2.00
2023-12-31T00:45:15.034Z,2.20
2023-12-31T00:47:42.571Z,2.70
2023-12-31T00:50:11.029Z,1.80
2023-12-31T00:52:38.617Z,1.80
2023-12-31T00:55:06.715Z,2.00
2023-12-31T00:57:34.875Z,2.70
2023-12-31T01:00:02.508Z,3.60
2023-12-31T01:02:31.273Z,2.70
2023-12-31T01:04:58.857Z,2.10
2023-12-31T01:07:26.482Z,2.20
2023-12-31T01:09:53.974Z,2.00
2023-12-31T01:12:21.486Z,2.20
2023-12-31T01:14:48.952Z,2.70
2023-12-31T01:17:16.552Z,2.40
2023-12-31T01:19:44.133Z,2.20
2023-12-31T01:22:11.689Z,2.30
2023-12-31T01:24:39.186Z,2.00
2023-12-31T01:27:06.718Z,2.60
2023-12-31T01:29:38.360Z,2.70
2023-12-31T01:32:07.018Z,2.30
2023-12-31T01:34:35.553Z,2.50
2023-12-31T01:37:04.743Z,2.50
2023-12-31T01:39:32.220Z,2.20
2023-12-31T01:41:59.677Z,2.60
2023-12-31T01:44:27.296Z,2.70
2023-12-31T01:46:54.809Z,2.30
2023-12-31T01:49:22.811Z,2.60
2023-12-31T01:51:50.843Z,2.30
2023-12-31T01:54:18.351Z,2.70
2023-12-31T01:56:45.926Z,3.30
2023-12-31T01:59:13.724Z,3.10
2023-12-31T02:01:42.187Z,2.80
2023-12-31T02:04:09.843Z,3.00
2023-12-31T02:06:37.448Z,3.00
2023-12-31T02:09:04.963Z,2.90
2023-12-31T02:11:32.744Z,3.10
2023-12-31T02:14:00.239Z,2.70
2023-12-31T02:16:29.065Z,3.20
2023-12-31T02:18:56.585Z,3.00
2023-12-31T02:21:24.200Z,3.20
2023-12-31T02:23:51.722Z,3.40
2023-12-31T02:26:19.265Z,3.00
2023-12-31T02:28:46.817Z,3.10
2023-12-31T02:31:14.322Z,2.90
2023-12-31T02:33:41.945Z,3.50
2023-12-31T02:36:10.599Z,2.80
2023-12-31T02:38:38.082Z,3.10
2023-12-31T02:41:05.580Z,2.50
2023-12-31T02:43:33.170Z,2.90
2023-12-31T02:46:00.703Z,3.50
2023-12-31T02:48:28.320Z,3.30
2023-12-31T02:50:57.768Z,3.30
2023-12-31T02:53:25.257Z,3.10
2023-12-31T02:55:52.907Z,3.00
2023-12-31T02:58:20.476Z,3.50
2023-12-31T03:00:48.084Z,2.90
2023-12-31T03:03:16.042Z,3.50
2023-12-31T03:05:43.815Z,2.90
